Time;durP1;ratioP1;P1;durP2;ratioP2;P2;SDS_P1;SDS_P2;PMS_P1;PMS_P2;Temp;Humidity;BMP_temperature;BMP_pressure;BME280_temperature;BME280_humidity;BME280_pressure;Samples;Min_cycle;Max_cycle;Signal;HPM_P1;HPM_P2
2023/03/27 04:22:36;;;;;;;14.02;1.77;;;;;;;3.42;85.58;100021.16;5089590;28;20397;-62
2023/03/27 04:25:06;;;;;;;4.70;1.48;;;;;;;3.43;86.18;100033.38;5088115;28;20390;-63
2023/03/27 04:27:34;;;;;;;10.43;4.53;;;;;;;3.47;90.07;100037.41;5087912;28;20123;-63
2023/03/27 04:30:14;;;;;;;2.22;1.30;;;;;;;3.36;87.03;100042.75;5088219;28;20463;-63
2023/03/27 04:33:18;;;;;;;4.13;1.63;;;;;;;3.39;84.30;100048.63;5046756;28;20049;-63
2023/03/27 04:36:03;;;;;;;6.15;2.42;;;;;;;3.44;87.65;100056.09;5086583;28;20051;-62
2023/03/27 04:38:38;;;;;;;6.57;1.63;;;;;;;3.36;90.54;100061.19;5087746;28;20035;-63
2023/03/27 04:41:04;;;;;;;6.60;1.38;;;;;;;3.33;89.47;100070.19;5089153;28;20037;-63
2023/03/27 04:43:30;;;;;;;5.55;1.58;;;;;;;3.25;88.81;100070.81;5089243;28;20031;-62
2023/03/27 04:45:55;;;;;;;9.30;2.08;;;;;;;3.22;88.95;100079.00;5087745;28;20393;-63
2023/03/27 04:48:21;;;;;;;7.00;1.92;;;;;;;3.26;92.77;100082.22;5088781;28;20048;-63
2023/03/27 04:50:50;;;;;;;4.82;1.95;;;;;;;3.36;91.17;100100.69;5087958;28;20655;-63
2023/03/27 04:53:30;;;;;;;4.00;1.70;;;;;;;3.34;91.05;100103.47;5087702;28;20096;-62
2023/03/27 04:55:56;;;;;;;5.03;1.65;;;;;;;3.34;91.37;100105.25;5087599;28;20047;-63
2023/03/27 04:58:24;;;;;;;2.83;1.70;;;;;;;3.25;92.38;100110.31;5087224;28;20040;-62
2023/03/27 05:00:54;;;;;;;4.68;1.50;;;;;;;3.31;90.21;100116.88;5087523;28;20113;-62
2023/03/27 05:03:39;;;;;;;10.60;2.17;;;;;;;3.34;91.97;100121.91;5089032;28;20075;-63
2023/03/27 05:06:14;;;;;;;13.57;1.88;;;;;;;3.34;91.90;100136.84;5087426;28;20038;-63
2023/03/27 05:08:40;;;;;;;4.97;1.70;;;;;;;3.37;89.02;100147.13;5082924;28;20043;-63
2023/03/27 05:11:06;;;;;;;4.95;1.60;;;;;;;3.39;92.20;100153.06;5087145;28;20054;-63
2023/03/27 05:13:43;;;;;;;6.15;1.30;;;;;;;3.44;87.89;100154.38;5087313;28;20028;-61
2023/03/27 05:16:10;;;;;;;2.42;1.20;;;;;;;3.49;89.41;100164.53;5086496;28;20040;-62
2023/03/27 05:18:43;;;;;;;5.72;3.13;;;;;;;3.48;90.57;100171.59;5086776;28;20041;-62
2023/03/27 05:21:12;;;;;;;11.05;1.75;;;;;;;3.52;87.64;100175.66;5086929;28;20039;-62
2023/03/27 05:23:37;;;;;;;7.90;2.00;;;;;;;3.45;87.50;100195.53;5087102;28;20029;-63
2023/03/27 05:26:05;;;;;;;3.75;1.50;;;;;;;3.46;88.59;100188.50;5086786;28;20040;-64
2023/03/27 05:28:51;;;;;;;6.00;1.45;;;;;;;3.37;89.21;100195.34;5083736;28;20055;-64
2023/03/27 05:31:18;;;;;;;8.85;1.58;;;;;;;3.46;90.26;100199.88;5066591;28;20082;-63
2023/03/27 05:33:58;;;;;;;4.35;1.58;;;;;;;3.46;89.08;100207.75;5053199;28;20036;-63
2023/03/27 05:36:28;;;;;;;4.60;1.48;;;;;;;3.58;86.89;100212.94;5053325;28;20033;-63
2023/03/27 05:38:56;;;;;;;4.70;1.40;;;;;;;3.41;88.34;100214.38;5053017;28;20033;-63
2023/03/27 05:41:31;;;;;;;5.65;1.60;;;;;;;3.39;85.14;100222.41;5054573;28;20025;-63
2023/03/27 05:43:56;;;;;;;1.65;0.90;;;;;;;3.47;84.01;100229.66;5054299;28;20029;-63
2023/03/27 05:46:22;;;;;;;2.25;1.45;;;;;;;3.48;86.86;100241.88;5053138;28;20056;-63
2023/03/27 05:48:53;;;;;;;3.03;1.15;;;;;;;3.50;86.09;100251.28;5053118;28;20409;-63
2023/03/27 05:51:19;;;;;;;7.05;1.45;;;;;;;3.54;84.27;100249.25;5052961;28;20040;-63
2023/03/27 05:53:47;;;;;;;7.18;1.10;;;;;;;3.54;83.73;100258.00;5053060;28;20048;-63
2023/03/27 05:56:31;;;;;;;10.65;1.50;;;;;;;3.58;82.44;100257.72;5038846;28;20044;-63
2023/03/27 05:59:01;;;;;;;1.73;1.15;;;;;;;3.54;85.56;100273.78;5052588;28;20124;-63
2023/03/27 06:01:27;;;;;;;1.08;0.95;;;;;;;3.54;82.15;100271.16;5052660;28;20500;-63
2023/03/27 06:03:55;;;;;;;1.65;0.95;;;;;;;3.50;85.32;100282.06;5052819;28;20049;-63
2023/03/27 06:06:26;;;;;;;1.30;0.88;;;;;;;3.56;84.49;100289.47;5052736;28;20044;-63
2023/03/27 06:08:55;;;;;;;3.50;1.13;;;;;;;3.51;83.94;100304.81;5052529;28;20041;-63
2023/03/27 06:11:21;;;;;;;3.80;1.20;;;;;;;3.51;83.88;100310.91;5052704;28;20489;-64
2023/03/27 06:13:47;;;;;;;4.53;1.10;;;;;;;3.56;79.01;100322.88;5052555;28;20033;-64
2023/03/27 06:16:19;;;;;;;4.68;1.63;;;;;;;3.38;80.37;100319.94;5052391;28;20040;-64
2023/03/27 06:19:11;;;;;;;1.45;0.93;;;;;;;3.42;79.68;100332.75;5052428;28;20497;-63
2023/03/27 06:21:47;;;;;;;2.25;1.00;;;;;;;3.56;76.79;100336.88;5052338;28;20041;-63
2023/03/27 06:24:13;;;;;;;6.85;1.15;;;;;;;3.54;80.25;100336.19;5054081;28;20045;-63
2023/03/27 06:26:40;;;;;;;4.50;1.48;;;;;;;3.58;79.55;100344.66;5055453;28;20028;-63
2023/03/27 06:29:07;;;;;;;3.30;0.98;;;;;;;3.74;79.45;100347.72;5054020;28;20041;-63
2023/03/27 06:31:34;;;;;;;1.35;0.82;;;;;;;3.65;78.32;100349.31;5052369;28;20505;-63
2023/03/27 06:34:04;;;;;;;4.57;0.90;;;;;;;3.73;77.06;100356.56;5053995;28;20037;-63
2023/03/27 06:36:39;;;;;;;1.98;1.00;;;;;;;3.75;74.59;100363.38;5053538;28;20060;-63
2023/03/27 06:39:05;;;;;;;2.95;1.10;;;;;;;3.88;77.88;100370.28;5053900;28;20041;-63
2023/03/27 06:41:31;;;;;;;3.80;0.82;;;;;;;3.95;77.95;100372.28;5056948;28;20032;-63
2023/03/27 06:44:03;;;;;;;2.20;1.10;;;;;;;4.19;75.44;100371.19;5055777;28;20175;-61
2023/03/27 06:46:51;;;;;;;1.05;0.70;;;;;;;4.48;76.56;100380.09;5051811;28;20066;-60
2023/03/27 06:49:40;;;;;;;0.95;0.93;;;;;;;4.72;73.51;100376.34;5024471;28;20056;-60
2023/03/27 06:52:14;;;;;;;0.73;0.60;;;;;;;4.67;72.07;100376.72;5051865;28;20033;-61
2023/03/27 06:54:39;;;;;;;3.42;1.23;;;;;;;4.88;69.47;100388.06;5051869;28;20692;-61
2023/03/27 06:57:05;;;;;;;1.27;0.70;;;;;;;4.88;66.64;100388.06;5051440;28;20040;-63
2023/03/27 06:59:42;;;;;;;4.35;1.25;;;;;;;4.94;69.05;100377.94;5051682;28;20036;-63
2023/03/27 07:02:10;;;;;;;1.38;0.75;;;;;;;4.88;69.29;100377.50;5051624;28;20037;-63
2023/03/27 07:05:12;;;;;;;1.20;0.65;;;;;;;5.02;69.68;100409.78;5052740;28;20040;-63
2023/03/27 07:07:41;;;;;;;1.33;0.90;;;;;;;5.31;66.69;100405.44;5051316;28;20056;-64
2023/03/27 07:10:09;;;;;;;6.75;1.25;;;;;;;5.34;65.37;100420.16;5051540;28;20124;-64
2023/03/27 07:12:35;;;;;;;1.42;0.73;;;;;;;5.42;66.33;100423.81;5051394;28;20198;-63
2023/03/27 07:15:02;;;;;;;3.50;0.80;;;;;;;5.55;66.98;100423.56;5051425;28;20110;-63
2023/03/27 07:17:29;;;;;;;4.35;1.02;;;;;;;5.49;66.93;100425.91;5051063;28;20044;-63
2023/03/27 07:19:56;;;;;;;1.45;0.98;;;;;;;5.41;65.41;100429.22;5051404;28;20071;-63
2023/03/27 07:22:26;;;;;;;4.40;1.10;;;;;;;5.39;64.73;100433.81;5051043;28;20034;-63
2023/03/27 07:24:51;;;;;;;2.65;0.95;;;;;;;5.25;64.57;100442.13;5052573;28;20029;-63
2023/03/27 07:27:18;;;;;;;1.90;0.77;;;;;;;5.33;62.82;100444.91;5050718;28;20112;-63
2023/03/27 07:29:45;;;;;;;2.55;0.75;;;;;;;5.21;65.15;100451.25;5051173;28;20094;-63
2023/03/27 07:32:16;;;;;;;3.40;0.85;;;;;;;5.22;64.53;100447.69;5051121;28;20025;-63
2023/03/27 07:34:47;;;;;;;3.92;1.00;;;;;;;5.41;64.07;100463.56;5051130;28;20083;-65
2023/03/27 07:37:18;;;;;;;3.05;0.95;;;;;;;5.56;67.27;100469.31;5051918;28;20045;-65
2023/03/27 07:40:13;;;;;;;4.88;0.80;;;;;;;5.76;61.61;100480.78;5015055;28;20451;-63
2023/03/27 07:42:44;;;;;;;4.40;1.10;;;;;;;5.75;63.88;100485.22;5051000;28;20041;-64
2023/03/27 07:45:20;;;;;;;1.63;0.80;;;;;;;5.83;61.36;100489.81;5050794;28;20127;-63
2023/03/27 07:47:46;;;;;;;2.10;1.15;;;;;;;6.06;60.48;100496.53;5050444;28;20040;-63
2023/03/27 07:50:16;;;;;;;1.50;1.10;;;;;;;6.19;61.22;100504.22;5052140;28;20025;-63
2023/03/27 07:52:43;;;;;;;0.98;0.93;;;;;;;5.97;60.53;100497.38;5052206;28;20110;-64
2023/03/27 07:55:13;;;;;;;1.88;0.88;;;;;;;5.87;61.38;100499.16;5050492;28;20033;-63
2023/03/27 07:57:47;;;;;;;1.52;1.25;;;;;;;6.06;61.47;100501.84;5050536;28;20524;-63
2023/03/27 08:00:16;;;;;;;2.25;1.10;;;;;;;6.40;61.81;100504.94;5050687;28;20041;-63
2023/03/27 08:02:44;;;;;;;3.00;0.82;;;;;;;6.47;57.03;100508.69;5052212;28;20119;-63
2023/03/27 08:05:12;;;;;;;5.25;0.88;;;;;;;6.54;59.92;100503.66;5050562;28;20064;-63
2023/03/27 08:07:41;;;;;;;2.03;0.82;;;;;;;6.50;59.66;100502.25;5050415;28;20033;-63
2023/03/27 08:10:08;;;;;;;1.58;1.23;;;;;;;6.62;61.34;100511.72;5034372;28;20036;-62
2023/03/27 08:12:45;;;;;;;4.78;0.80;;;;;;;6.44;57.48;100516.06;5050476;28;20045;-63
2023/03/27 08:15:11;;;;;;;3.63;1.00;;;;;;;6.80;56.92;100515.31;5050661;28;20029;-63
2023/03/27 08:17:36;;;;;;;1.60;0.98;;;;;;;6.73;57.51;100516.88;5050226;28;20119;-63
2023/03/27 08:20:07;;;;;;;1.83;1.20;;;;;;;6.64;58.99;100523.00;5050512;28;20029;-63
2023/03/27 08:22:43;;;;;;;3.47;1.05;;;;;;;6.83;56.65;100518.66;5050604;28;20128;-66
2023/03/27 08:25:31;;;;;;;1.85;1.13;;;;;;;6.93;54.56;100522.97;5051936;28;20115;-63
2023/03/27 08:27:58;;;;;;;2.10;0.70;;;;;;;6.92;57.36;100531.91;5050161;28;20455;-63
2023/03/27 08:30:24;;;;;;;1.35;0.75;;;;;;;7.14;55.30;100541.31;5053492;28;20037;-63
2023/03/27 08:32:52;;;;;;;1.55;0.82;;;;;;;7.03;56.52;100539.66;5050737;28;20101;-63
2023/03/27 08:35:19;;;;;;;3.33;0.70;;;;;;;7.07;55.21;100545.50;5050320;28;20387;-62
2023/03/27 08:37:45;;;;;;;1.58;0.80;;;;;;;6.91;55.43;100545.25;5051237;28;20104;-63
2023/03/27 08:40:51;;;;;;;1.77;0.90;;;;;;;7.04;54.22;100559.03;5051436;28;20094;-63
2023/03/27 08:43:40;;;;;;;3.00;0.88;;;;;;;6.94;53.75;100561.72;5050266;28;20033;-63
2023/03/27 08:46:34;;;;;;;5.15;0.98;;;;;;;7.10;52.83;100555.81;5050149;28;20036;-62
2023/03/27 08:49:02;;;;;;;7.80;1.15;;;;;;;7.17;53.81;100562.22;5049842;28;20060;-63
2023/03/27 08:51:33;;;;;;;1.23;0.82;;;;;;;7.28;51.85;100563.84;5050064;28;20504;-63
2023/03/27 08:54:16;;;;;;;1.65;0.90;;;;;;;7.53;55.38;100565.88;5050114;28;20033;-63
2023/03/27 08:56:42;;;;;;;3.80;1.25;;;;;;;7.71;55.08;100567.75;5050035;28;20029;-62
2023/03/27 08:59:13;;;;;;;4.78;1.38;;;;;;;7.69;56.74;100575.81;5049926;28;20494;-62
2023/03/27 09:02:06;;;;;;;1.35;0.70;;;;;;;7.66;55.62;100570.00;5050115;28;20547;-63
2023/03/27 09:04:49;;;;;;;1.48;0.80;;;;;;;7.68;54.50;100571.50;5050064;28;20401;-61
2023/03/27 09:07:36;;;;;;;1.35;0.85;;;;;;;7.19;52.59;100577.97;5050214;28;20059;-63
2023/03/27 09:10:39;;;;;;;2.30;1.00;;;;;;;6.78;55.98;100583.50;5053912;28;20066;-63
2023/03/27 09:13:44;;;;;;;2.88;0.80;;;;;;;7.08;53.93;100589.56;5054944;28;20406;-63
2023/03/27 09:16:25;;;;;;;4.90;1.02;;;;;;;7.46;55.90;100587.81;5053656;28;20494;-62
2023/03/27 09:19:14;;;;;;;1.10;0.70;;;;;;;7.62;55.31;100577.41;5053430;28;20040;-62
2023/03/27 09:21:47;;;;;;;0.50;0.50;;;;;;;7.50;51.46;100589.19;5053449;28;20116;-63
2023/03/27 09:24:35;;;;;;;;;;;;;;;7.48;54.03;100583.19;5054084;28;20067;-62
2023/03/27 09:27:33;;;;;;;0.85;0.73;;;;;;;7.29;51.19;100579.59;5045671;28;19917;-62
2023/03/27 09:30:26;;;;;;;3.13;0.90;;;;;;;7.49;52.33;100587.50;5043709;28;20107;-62
2023/03/27 09:33:04;;;;;;;1.42;1.08;;;;;;;7.48;49.45;100581.38;5053436;28;20083;-63
2023/03/27 09:35:34;;;;;;;1.50;0.63;;;;;;;8.12;49.94;100588.47;5053261;28;20029;-62
2023/03/27 09:38:02;;;;;;;0.57;0.50;;;;;;;8.85;52.12;100593.66;5053075;28;20045;-62
2023/03/27 09:40:44;;;;;;;4.25;0.90;;;;;;;9.09;48.86;100593.03;5053251;28;20378;-62
2023/03/27 09:43:17;;;;;;;2.15;0.90;;;;;;;9.53;47.68;100590.31;5053298;28;20033;-63
2023/03/27 09:45:43;;;;;;;2.53;0.60;;;;;;;9.89;41.36;100593.63;5053148;28;20036;-62
2023/03/27 09:48:26;;;;;;;1.05;0.60;;;;;;;10.27;42.51;100592.28;5052762;28;20120;-62
2023/03/27 09:50:52;;;;;;;2.05;0.60;;;;;;;10.23;42.23;100587.44;5054218;28;20037;-63
2023/03/27 09:53:28;;;;;;;0.68;0.50;;;;;;;9.13;41.37;100598.88;5053069;28;20037;-62
2023/03/27 09:56:13;;;;;;;1.70;0.45;;;;;;;8.80;42.69;100601.28;5053064;28;20083;-63
2023/03/27 09:58:47;;;;;;;0.77;0.60;;;;;;;9.24;45.52;100606.56;5052680;28;20029;-62
2023/03/27 10:01:29;;;;;;;1.48;0.50;;;;;;;9.96;45.37;100599.97;5052877;28;20493;-62
2023/03/27 10:04:11;;;;;;;1.92;0.85;;;;;;;10.38;43.53;100603.66;5052899;28;20493;-62
2023/03/27 10:06:55;;;;;;;0.90;0.63;;;;;;;11.26;41.90;100594.00;5052805;28;20037;-63
2023/03/27 10:09:34;;;;;;;1.95;1.02;;;;;;;11.87;39.56;100600.56;5052729;28;20111;-63
2023/03/27 10:12:06;;;;;;;2.80;0.82;;;;;;;11.80;39.93;100604.88;5052772;28;20037;-63
2023/03/27 10:14:44;;;;;;;0.63;0.50;;;;;;;12.08;41.17;100599.13;5054234;28;20037;-60
2023/03/27 10:17:36;;;;;;;1.23;0.70;;;;;;;12.50;39.59;100601.38;5052329;28;20564;-64
2023/03/27 10:20:15;;;;;;;1.08;0.82;;;;;;;12.25;39.37;100602.53;5052394;28;20087;-62
2023/03/27 10:22:49;;;;;;;1.40;0.65;;;;;;;12.03;40.21;100601.47;5052650;28;20036;-60
2023/03/27 10:25:25;;;;;;;0.80;0.55;;;;;;;11.35;39.11;100608.16;5052522;28;20032;-62
2023/03/27 10:28:26;;;;;;;0.77;0.52;;;;;;;10.25;46.11;100609.44;5052093;28;20429;-60
2023/03/27 10:31:28;;;;;;;0.95;0.43;;;;;;;10.28;42.72;100611.75;5052336;28;20037;-62
2023/03/27 10:34:25;;;;;;;3.55;0.70;;;;;;;10.65;42.72;100613.19;5052412;28;20029;-61
2023/03/27 10:37:26;;;;;;;0.85;0.60;;;;;;;10.14;43.53;100618.50;5053184;28;20099;-61
2023/03/27 10:40:06;;;;;;;0.88;0.60;;;;;;;10.36;43.03;100614.44;5052304;28;20043;-63
2023/03/27 10:42:36;;;;;;;3.15;1.00;;;;;;;11.38;40.06;100613.97;5052125;28;20036;-62
2023/03/27 10:45:02;;;;;;;2.00;0.80;;;;;;;12.50;40.03;100615.56;5035494;28;20135;-62
2023/03/27 10:47:32;;;;;;;3.35;0.68;;;;;;;13.19;39.04;100610.19;5051840;28;20041;-62
2023/03/27 10:50:22;;;;;;;1.75;0.57;;;;;;;13.96;35.40;100606.41;5051966;28;20033;-63
2023/03/27 10:53:01;;;;;;;1.55;0.68;;;;;;;14.71;33.38;100610.56;5051741;28;20036;-62
2023/03/27 10:56:07;;;;;;;1.13;0.70;;;;;;;12.91;35.23;100617.97;5051791;28;20120;-64
2023/03/27 10:58:42;;;;;;;3.20;1.17;;;;;;;13.25;36.79;100609.50;5051627;28;20029;-62
2023/03/27 11:01:19;;;;;;;2.00;0.70;;;;;;;13.60;34.47;100604.44;5051717;28;20075;-63
2023/03/27 11:04:00;;;;;;;1.58;0.43;;;;;;;12.80;34.75;100605.00;5051769;28;20041;-62
2023/03/27 11:06:32;;;;;;;2.97;0.88;;;;;;;12.69;36.62;100614.25;5051570;28;20050;-64
2023/03/27 11:09:10;;;;;;;2.60;0.93;;;;;;;11.60;39.31;100619.59;5051211;28;20494;-61
2023/03/27 11:11:50;;;;;;;1.45;0.45;;;;;;;11.80;39.59;100615.56;5051545;28;20041;-62
2023/03/27 11:14:41;;;;;;;2.35;0.82;;;;;;;11.22;39.03;100615.84;5052848;28;20040;-62
2023/03/27 11:17:15;;;;;;;1.50;0.60;;;;;;;10.78;40.21;100610.84;5051181;28;20052;-62
2023/03/27 11:20:06;;;;;;;2.20;0.70;;;;;;;10.47;41.15;100623.97;5051440;28;20029;-62
2023/03/27 11:23:27;;;;;;;1.15;0.68;;;;;;;10.02;43.09;100623.28;4990988;28;20047;-62
2023/03/27 11:26:32;;;;;;;0.50;0.50;;;;;;;9.56;46.10;100629.88;4987427;28;20115;-61
2023/03/27 11:29:21;;;;;;;1.15;0.68;;;;;;;8.94;45.12;100634.44;5039297;28;20049;-62
2023/03/27 11:31:53;;;;;;;0.70;0.60;;;;;;;8.64;47.34;100644.44;5050683;28;20135;-61
2023/03/27 11:34:52;;;;;;;1.33;0.70;;;;;;;8.64;48.45;100644.44;5051241;28;20112;-62
2023/03/27 11:37:54;;;;;;;0.98;0.43;;;;;;;8.57;50.44;100639.91;5038682;28;20120;-61
2023/03/27 11:40:38;;;;;;;2.25;0.88;;;;;;;9.03;48.66;100660.06;5051058;28;20033;-62
2023/03/27 11:43:04;;;;;;;1.00;0.70;;;;;;;9.42;47.30;100665.88;5051004;28;20493;-62
2023/03/27 11:45:43;;;;;;;1.85;0.80;;;;;;;9.58;47.52;100658.97;5050936;28;20044;-61
2023/03/27 11:48:25;;;;;;;1.63;0.75;;;;;;;9.89;47.76;100657.50;5050944;28;20029;-62
2023/03/27 11:51:06;;;;;;;3.10;0.60;;;;;;;10.55;45.33;100647.94;5050915;28;20025;-63
2023/03/27 11:53:45;;;;;;;1.42;0.47;;;;;;;10.93;46.86;100651.84;5050938;28;20037;-63
2023/03/27 11:56:22;;;;;;;4.20;1.05;;;;;;;11.93;45.34;100655.06;5071679;28;20056;-62
2023/03/27 11:59:15;;;;;;;0.68;0.30;;;;;;;12.94;41.68;100659.53;5077021;28;20386;-63
2023/03/27 12:02:08;;;;;;;2.47;0.80;;;;;;;11.64;40.18;100647.63;5048943;28;20036;-63
2023/03/27 12:04:56;;;;;;;2.65;0.57;;;;;;;11.50;40.05;100659.00;5060385;28;20033;-62
2023/03/27 12:08:00;;;;;;;3.88;0.77;;;;;;;11.06;43.37;100662.84;5059622;28;20025;-63
2023/03/27 12:10:37;;;;;;;0.65;0.40;;;;;;;11.00;41.66;100666.16;5061887;28;20029;-63
2023/03/27 12:13:33;;;;;;;0.88;0.82;;;;;;;11.25;41.45;100660.84;5042272;28;20029;-63
2023/03/27 12:16:45;;;;;;;1.45;0.40;;;;;;;10.93;44.04;100664.31;5061159;28;20052;-63
2023/03/27 12:19:24;;;;;;;3.28;0.90;;;;;;;10.64;43.29;100662.13;5016925;28;20421;-63
2023/03/27 12:22:21;;;;;;;1.20;0.50;;;;;;;10.77;44.23;100667.81;5061205;28;20481;-62
2023/03/27 12:24:49;;;;;;;;;;;;;;;9.92;45.43;100669.66;5061481;28;20103;-63
2023/03/27 12:28:07;;;;;;;3.85;0.73;;;;;;;9.96;45.70;100679.81;5060630;28;20010;-63
2023/03/27 12:30:48;;;;;;;2.67;0.65;;;;;;;9.67;48.09;100679.34;5061306;28;20035;-62
2023/03/27 12:33:31;;;;;;;1.58;0.77;;;;;;;9.22;47.77;100672.38;5059455;28;20397;-63
2023/03/27 12:36:02;;;;;;;2.38;0.60;;;;;;;8.54;50.55;100674.69;5061448;28;20114;-63
2023/03/27 12:38:41;;;;;;;1.48;0.60;;;;;;;8.43;49.83;100687.22;5055463;28;20037;-63
2023/03/27 12:41:22;;;;;;;1.65;0.65;;;;;;;8.25;50.62;100686.28;5050359;28;20114;-63
2023/03/27 12:44:13;;;;;;;0.77;0.55;;;;;;;7.92;56.86;100698.31;5054017;28;20086;-62
2023/03/27 12:47:03;;;;;;;0.73;0.50;;;;;;;7.80;62.25;100710.06;5054212;28;20041;-62
2023/03/27 12:49:40;;;;;;;0.70;0.50;;;;;;;7.83;62.77;100713.28;5054279;28;20371;-63
2023/03/27 12:52:06;;;;;;;1.70;0.50;;;;;;;7.79;60.84;100721.66;5054211;28;20523;-63
2023/03/27 12:55:26;;;;;;;2.10;0.80;;;;;;;7.37;61.99;100731.75;5045142;28;20110;-62
2023/03/27 12:57:54;;;;;;;0.77;0.70;;;;;;;7.26;67.11;100730.13;5058618;28;20041;-62
2023/03/27 13:00:40;;;;;;;1.25;0.77;;;;;;;6.71;72.56;100741.19;5055260;28;20099;-63
2023/03/27 13:03:33;;;;;;;0.75;0.60;;;;;;;6.60;77.20;100735.22;5070770;28;20124;-62
2023/03/27 13:06:47;;;;;;;0.60;0.60;;;;;;;6.68;82.59;100738.00;5070602;28;20040;-63
2023/03/27 13:09:29;;;;;;;0.80;0.70;;;;;;;6.74;84.89;100746.25;5025835;28;20414;-63
2023/03/27 13:12:17;;;;;;;1.75;0.88;;;;;;;6.62;81.98;100741.19;5070507;28;20383;-63
2023/03/27 13:14:48;;;;;;;1.85;0.90;;;;;;;6.52;81.51;100741.19;5053939;28;20035;-63
2023/03/27 13:17:28;;;;;;;1.85;0.70;;;;;;;6.52;84.93;100746.47;5053454;28;20060;-63
2023/03/27 13:20:08;;;;;;;1.90;0.98;;;;;;;6.52;84.23;100727.94;5070447;28;20555;-63
2023/03/27 13:22:52;;;;;;;1.08;0.77;;;;;;;6.34;79.78;100734.84;5070409;28;20044;-63
2023/03/27 13:25:53;;;;;;;2.10;1.00;;;;;;;6.34;81.53;100732.22;5070127;28;20037;-61
2023/03/27 13:28:41;;;;;;;1.27;0.80;;;;;;;6.36;81.19;100733.72;5040537;28;20127;-63
2023/03/27 13:31:44;;;;;;;3.20;0.90;;;;;;;6.45;80.79;100734.72;5053611;28;20069;-63
2023/03/27 13:34:25;;;;;;;2.55;0.93;;;;;;;6.61;80.16;100743.00;5054771;28;20110;-62
2023/03/27 13:36:51;;;;;;;2.58;1.30;;;;;;;7.37;77.57;100718.50;5069984;28;20029;-62
2023/03/27 13:39:23;;;;;;;1.10;1.00;;;;;;;8.79;73.09;100739.53;5053567;28;20440;-62
2023/03/27 13:42:03;;;;;;;1.80;0.75;;;;;;;10.25;64.07;100735.41;5054679;28;20064;-63
2023/03/27 13:44:53;;;;;;;1.85;1.00;;;;;;;11.06;61.08;100728.66;5070203;28;20502;-64
2023/03/27 13:47:35;;;;;;;2.60;1.00;;;;;;;11.64;57.79;100733.84;5053032;28;20090;-67
2023/03/27 13:50:13;;;;;;;1.38;1.15;;;;;;;12.01;55.68;100727.13;5053251;28;20571;-63
2023/03/27 13:53:14;;;;;;;;;;;;;;;12.00;51.94;100725.47;5053852;28;20436;-64
2023/03/27 13:55:56;;;;;;;3.50;0.73;;;;;;;10.84;53.77;100727.47;4996101;28;20052;-62
2023/03/27 13:59:20;;;;;;;1.45;1.13;;;;;;;10.72;56.83;100713.59;5058835;28;20556;-63
2023/03/27 14:01:56;;;;;;;1.25;1.05;;;;;;;10.45;57.16;100721.84;4986507;28;20584;-64
2023/03/27 14:04:27;;;;;;;4.03;0.98;;;;;;;10.36;57.92;100714.81;5056423;28;20562;-63
2023/03/27 14:07:14;;;;;;;1.92;1.00;;;;;;;10.04;59.97;100714.47;5077313;28;20029;-63
2023/03/27 14:10:35;;;;;;;2.78;0.90;;;;;;;9.06;60.69;100704.09;5063167;28;20206;-63
2023/03/27 14:13:14;;;;;;;0.93;0.73;;;;;;;8.30;63.44;100710.59;5045044;28;20045;-64
2023/03/27 14:15:57;;;;;;;1.02;0.93;;;;;;;8.07;65.76;100733.16;5062664;28;20059;-62
2023/03/27 14:18:57;;;;;;;3.05;0.80;;;;;;;7.77;69.13;100731.59;5060292;28;21296;-63
2023/03/27 14:21:27;;;;;;;1.73;0.80;;;;;;;7.47;71.70;100728.13;5062326;28;20035;-63
2023/03/27 14:24:18;;;;;;;2.28;1.00;;;;;;;7.34;72.60;100735.53;5062392;28;20043;-63
2023/03/27 14:26:52;;;;;;;3.25;1.15;;;;;;;7.21;74.33;100725.22;5060046;28;20399;-63
2023/03/27 14:29:20;;;;;;;2.88;0.75;;;;;;;7.11;77.64;100736.78;5052232;28;20135;-63
2023/03/27 14:31:49;;;;;;;2.47;0.90;;;;;;;6.98;78.92;100729.16;5052302;28;20072;-64
2023/03/27 14:34:33;;;;;;;3.17;1.10;;;;;;;6.88;83.35;100744.16;5052787;28;20033;-64
2023/03/27 14:37:29;;;;;;;1.23;0.95;;;;;;;6.48;92.10;100756.47;5053255;28;20041;-63
2023/03/27 14:39:59;;;;;;;1.20;1.05;;;;;;;6.47;89.75;100760.09;5052323;28;20037;-64
2023/03/27 14:42:36;;;;;;;0.98;0.80;;;;;;;6.21;92.67;100762.38;5052319;28;20120;-63
2023/03/27 14:45:19;;;;;;;1.38;0.68;;;;;;;6.29;87.71;100755.56;5052182;28;20124;-63
2023/03/27 14:47:48;;;;;;;0.98;0.65;;;;;;;6.23;93.74;100760.44;5051761;28;20064;-63
2023/03/27 14:50:14;;;;;;;1.42;0.65;;;;;;;6.21;96.11;100759.72;5053669;28;20398;-63
2023/03/27 14:52:42;;;;;;;0.63;0.60;;;;;;;6.40;91.89;100752.84;5052015;28;20094;-64
2023/03/27 14:55:17;;;;;;;1.23;0.80;;;;;;;6.46;91.04;100742.56;5053466;28;20052;-63
2023/03/27 14:57:55;;;;;;;0.40;0.40;;;;;;;6.63;89.16;100746.34;5051901;28;20041;-63
2023/03/27 15:00:30;;;;;;;1.08;0.82;;;;;;;6.75;87.75;100747.91;5051932;28;20123;-64
2023/03/27 15:03:12;;;;;;;0.98;0.60;;;;;;;6.97;87.14;100748.63;5051737;28;20067;-64
2023/03/27 15:05:56;;;;;;;2.95;0.60;;;;;;;7.07;86.09;100757.44;5050955;28;20506;-63
2023/03/27 15:08:24;;;;;;;0.63;0.50;;;;;;;7.23;87.35;100749.75;5051480;28;20486;-64
2023/03/27 15:11:11;;;;;;;0.50;0.50;;;;;;;7.35;80.16;100748.66;5037551;28;20064;-64
2023/03/27 15:13:55;;;;;;;0.32;0.32;;;;;;;7.45;73.06;100753.13;5051679;28;20033;-64
2023/03/27 15:16:28;;;;;;;0.52;0.52;;;;;;;7.45;80.52;100750.47;5051658;28;20053;-64
2023/03/27 15:19:03;;;;;;;1.17;0.60;;;;;;;7.55;77.43;100745.97;5051202;28;20136;-63
2023/03/27 15:21:48;;;;;;;0.40;0.40;;;;;;;7.67;71.75;100744.84;5052812;28;20036;-62
2023/03/27 15:24:17;;;;;;;0.40;0.40;;;;;;;7.74;71.63;100751.25;5051428;28;20079;-62
2023/03/27 15:26:44;;;;;;;0.60;0.50;;;;;;;7.62;66.15;100749.75;5051190;28;20124;-63
2023/03/27 15:29:31;;;;;;;0.70;0.43;;;;;;;7.53;71.77;100747.94;5052504;28;20120;-63
2023/03/27 15:31:58;;;;;;;1.02;0.70;;;;;;;7.44;69.32;100754.09;5052558;28;20393;-63
2023/03/27 15:34:44;;;;;;;0.73;0.55;;;;;;;7.25;76.06;100766.38;5052475;28;20478;-63
2023/03/27 15:37:17;;;;;;;0.73;0.47;;;;;;;7.09;73.97;100755.47;5052197;28;20090;-63
2023/03/27 15:40:00;;;;;;;1.27;0.55;;;;;;;7.14;71.79;100771.81;5052584;28;20059;-63
2023/03/27 15:42:42;;;;;;;0.60;0.60;;;;;;;7.19;72.59;100771.41;5052355;28;20429;-62
2023/03/27 15:45:09;;;;;;;1.48;0.70;;;;;;;7.24;78.78;100766.53;5052427;28;20057;-63
2023/03/27 15:47:35;;;;;;;0.55;0.52;;;;;;;7.39;77.35;100764.28;5052030;28;20119;-62
2023/03/27 15:50:25;;;;;;;1.60;0.80;;;;;;;7.45;71.92;100755.78;5052122;28;20130;-62
2023/03/27 15:52:53;;;;;;;0.55;0.50;;;;;;;7.26;73.38;100770.69;5052116;28;20063;-63
2023/03/27 15:55:55;;;;;;;;;;;;;;;7.29;75.17;100756.31;5052321;28;20040;-64
2023/03/27 15:58:26;;;;;;;0.93;0.57;;;;;;;7.15;74.53;100746.16;4990184;28;20489;-63
2023/03/27 16:00:57;;;;;;;0.57;0.43;;;;;;;7.12;71.83;100762.34;5041468;28;20049;-63
2023/03/27 16:03:24;;;;;;;2.72;0.75;;;;;;;7.12;74.70;100755.22;5052141;28;20474;-61
2023/03/27 16:05:53;;;;;;;1.17;0.70;;;;;;;7.16;73.76;100761.91;5051905;28;20047;-64
2023/03/27 16:08:32;;;;;;;1.02;0.68;;;;;;;7.19;71.51;100763.44;5051754;28;20390;-63
2023/03/27 16:10:59;;;;;;;1.02;0.60;;;;;;;7.25;72.36;100766.38;5051960;28;20406;-64
2023/03/27 16:13:55;;;;;;;0.75;0.70;;;;;;;7.28;70.40;100765.25;5051976;28;20069;-64
2023/03/27 16:16:24;;;;;;;0.98;0.80;;;;;;;7.26;73.74;100762.75;5051350;28;20600;-63
2023/03/27 16:18:50;;;;;;;0.65;0.63;;;;;;;7.13;70.08;100764.00;5051519;28;20048;-63
2023/03/27 16:21:20;;;;;;;1.77;0.88;;;;;;;7.16;72.41;100772.50;5051654;28;20033;-63
2023/03/27 16:23:45;;;;;;;0.50;0.50;;;;;;;7.20;72.58;100765.13;5051807;28;20072;-63
2023/03/27 16:26:25;;;;;;;0.52;0.47;;;;;;;7.30;73.56;100768.59;5051775;28;20064;-62
2023/03/27 16:28:56;;;;;;;3.35;1.08;;;;;;;7.28;76.23;100774.03;5051521;28;20037;-63
2023/03/27 16:31:21;;;;;;;0.60;0.60;;;;;;;7.29;71.39;100764.28;5051674;28;20102;-63
2023/03/27 16:33:47;;;;;;;1.10;0.63;;;;;;;7.30;72.23;100768.59;5051760;28;20041;-63
2023/03/27 16:36:19;;;;;;;0.70;0.68;;;;;;;7.42;71.13;100770.13;5051616;28;20037;-63
2023/03/27 16:38:45;;;;;;;0.60;0.60;;;;;;;7.40;71.15;100774.75;5051407;28;20410;-63
2023/03/27 16:41:13;;;;;;;1.10;1.00;;;;;;;7.50;71.25;100780.06;5050240;28;20036;-63
2023/03/27 16:43:39;;;;;;;0.82;0.50;;;;;;;7.54;69.72;100781.44;5051680;28;20371;-63